sensor_id;sensor_type;location;lat;lon;timestamp;P1;durP1;ratioP1;P2;durP2;ratioP2
57846;SDS011;43675;50.030;21.952;2024-01-11T00:45:34;100.70;;;76.80;;
57846;SDS011;43675;50.030;21.952;2024-01-11T01:28:57;117.40;;;89.00;;
57846;SDS011;43675;50.030;21.952;2024-01-11T01:35:12;112.90;;;86.40;;
57846;SDS011;43675;50.030;21.952;2024-01-11T02:14:58;106.20;;;82.70;;
57846;SDS011;43675;50.030;21.952;2024-01-11T02:33:37;97.30;;;77.90;;
57846;SDS011;43675;50.030;21.952;2024-01-11T03:01:22;89.50;;;73.60;;
57846;SDS011;43675;50.030;21.952;2024-01-11T03:32:16;127.30;;;98.20;;
57846;SDS011;43675;50.030;21.952;2024-01-11T03:44:10;115.00;;;89.20;;
57846;SDS011;43675;50.030;21.952;2024-01-11T04:11:59;75.60;;;58.80;;
57846;SDS011;43675;50.030;21.952;2024-01-11T05:13:11;54.40;;;44.60;;
57846;SDS011;43675;50.030;21.952;2024-01-11T05:16:04;55.30;;;45.00;;
57846;SDS011;43675;50.030;21.952;2024-01-11T06:02:37;55.20;;;45.90;;
57846;SDS011;43675;50.030;21.952;2024-01-11T06:05:28;56.00;;;46.70;;
57846;SDS011;43675;50.030;21.952;2024-01-11T06:17:57;52.00;;;43.20;;
57846;SDS011;43675;50.030;21.952;2024-01-11T06:23:46;47.80;;;42.50;;
57846;SDS011;43675;50.030;21.952;2024-01-11T06:26:28;50.10;;;43.10;;
57846;SDS011;43675;50.030;21.952;2024-01-11T06:38:36;46.70;;;40.70;;
57846;SDS011;43675;50.030;21.952;2024-01-11T06:47:14;48.50;;;40.70;;
57846;SDS011;43675;50.030;21.952;2024-01-11T07:05:03;38.20;;;34.30;;
57846;SDS011;43675;50.030;21.952;2024-01-11T07:20:02;37.60;;;33.70;;
57846;SDS011;43675;50.030;21.952;2024-01-11T07:35:26;41.70;;;35.30;;
57846;SDS011;43675;50.030;21.952;2024-01-11T07:37:59;44.90;;;35.10;;
57846;SDS011;43675;50.030;21.952;2024-01-11T07:40:38;37.30;;;33.30;;
57846;SDS011;43675;50.030;21.952;2024-01-11T07:43:29;37.60;;;33.40;;
57846;SDS011;43675;50.030;21.952;2024-01-11T07:46:27;38.00;;;33.80;;
57846;SDS011;43675;50.030;21.952;2024-01-11T07:52:21;38.90;;;34.20;;
57846;SDS011;43675;50.030;21.952;2024-01-11T07:54:48;38.50;;;33.90;;
57846;SDS011;43675;50.030;21.952;2024-01-11T07:57:24;37.70;;;33.60;;
57846;SDS011;43675;50.030;21.952;2024-01-11T08:00:06;37.10;;;32.80;;
57846;SDS011;43675;50.030;21.952;2024-01-11T08:05:50;36.60;;;32.50;;
57846;SDS011;43675;50.030;21.952;2024-01-11T08:08:42;37.70;;;33.60;;
57846;SDS011;43675;50.030;21.952;2024-01-11T08:11:14;36.80;;;32.60;;
57846;SDS011;43675;50.030;21.952;2024-01-11T08:14:02;39.00;;;34.20;;
57846;SDS011;43675;50.030;21.952;2024-01-11T08:16:28;39.20;;;34.80;;
57846;SDS011;43675;50.030;21.952;2024-01-11T08:18:55;41.10;;;35.60;;
57846;SDS011;43675;50.030;21.952;2024-01-11T08:21:21;41.00;;;35.50;;
57846;SDS011;43675;50.030;21.952;2024-01-11T08:24:08;43.70;;;36.20;;
57846;SDS011;43675;50.030;21.952;2024-01-11T08:29:33;44.20;;;37.90;;
57846;SDS011;43675;50.030;21.952;2024-01-11T08:32:23;44.70;;;37.90;;
57846;SDS011;43675;50.030;21.952;2024-01-11T08:35:38;41.20;;;35.80;;
57846;SDS011;43675;50.030;21.952;2024-01-11T08:38:06;41.20;;;35.10;;
57846;SDS011;43675;50.030;21.952;2024-01-11T08:40:39;37.90;;;33.80;;
57846;SDS011;43675;50.030;21.952;2024-01-11T08:43:24;39.40;;;34.50;;
57846;SDS011;43675;50.030;21.952;2024-01-11T08:45:54;39.20;;;33.90;;
57846;SDS011;43675;50.030;21.952;2024-01-11T08:48:21;40.50;;;34.20;;
57846;SDS011;43675;50.030;21.952;2024-01-11T08:50:48;40.90;;;34.20;;
57846;SDS011;43675;50.030;21.952;2024-01-11T08:53:21;41.10;;;34.90;;
57846;SDS011;43675;50.030;21.952;2024-01-11T08:55:51;40.90;;;35.30;;
57846;SDS011;43675;50.030;21.952;2024-01-11T08:58:25;39.10;;;33.00;;
57846;SDS011;43675;50.030;21.952;2024-01-11T09:00:54;36.70;;;32.70;;
57846;SDS011;43675;50.030;21.952;2024-01-11T09:05:57;35.60;;;31.70;;
57846;SDS011;43675;50.030;21.952;2024-01-11T09:08:31;38.70;;;31.50;;
57846;SDS011;43675;50.030;21.952;2024-01-11T09:13:28;36.20;;;31.70;;
57846;SDS011;43675;50.030;21.952;2024-01-11T09:15:55;34.00;;;30.40;;
57846;SDS011;43675;50.030;21.952;2024-01-11T09:18:22;38.10;;;31.60;;
57846;SDS011;43675;50.030;21.952;2024-01-11T09:20:58;39.10;;;34.60;;
57846;SDS011;43675;50.030;21.952;2024-01-11T09:23:28;39.90;;;35.60;;
57846;SDS011;43675;50.030;21.952;2024-01-11T09:25:58;37.40;;;33.00;;
57846;SDS011;43675;50.030;21.952;2024-01-11T09:28:35;38.40;;;34.30;;
57846;SDS011;43675;50.030;21.952;2024-01-11T09:31:04;38.50;;;33.80;;
57846;SDS011;43675;50.030;21.952;2024-01-11T09:33:40;38.60;;;34.00;;
57846;SDS011;43675;50.030;21.952;2024-01-11T09:36:17;40.50;;;33.60;;
57846;SDS011;43675;50.030;21.952;2024-01-11T09:38:56;41.50;;;33.40;;
57846;SDS011;43675;50.030;21.952;2024-01-11T09:41:25;41.20;;;34.80;;
57846;SDS011;43675;50.030;21.952;2024-01-11T09:44:05;40.00;;;33.80;;
57846;SDS011;43675;50.030;21.952;2024-01-11T09:46:38;36.20;;;32.30;;
57846;SDS011;43675;50.030;21.952;2024-01-11T09:49:06;35.70;;;30.30;;
57846;SDS011;43675;50.030;21.952;2024-01-11T09:51:53;38.40;;;32.20;;
57846;SDS011;43675;50.030;21.952;2024-01-11T09:54:27;40.50;;;33.30;;
57846;SDS011;43675;50.030;21.952;2024-01-11T09:56:58;39.20;;;32.80;;
57846;SDS011;43675;50.030;21.952;2024-01-11T10:05:34;39.90;;;34.10;;
57846;SDS011;43675;50.030;21.952;2024-01-11T10:08:01;42.80;;;35.00;;
57846;SDS011;43675;50.030;21.952;2024-01-11T10:10:49;44.10;;;36.50;;
57846;SDS011;43675;50.030;21.952;2024-01-11T10:13:42;43.20;;;36.70;;
57846;SDS011;43675;50.030;21.952;2024-01-11T10:16:32;45.10;;;37.30;;
57846;SDS011;43675;50.030;21.952;2024-01-11T10:22:37;45.40;;;37.80;;
57846;SDS011;43675;50.030;21.952;2024-01-11T10:25:19;47.10;;;37.60;;
57846;SDS011;43675;50.030;21.952;2024-01-11T10:28:13;48.00;;;37.70;;
57846;SDS011;43675;50.030;21.952;2024-01-11T10:30:39;46.80;;;37.10;;
57846;SDS011;43675;50.030;21.952;2024-01-11T10:33:11;47.00;;;38.00;;
57846;SDS011;43675;50.030;21.952;2024-01-11T10:35:41;45.40;;;37.80;;
57846;SDS011;43675;50.030;21.952;2024-01-11T10:38:46;45.20;;;37.60;;
57846;SDS011;43675;50.030;21.952;2024-01-11T10:41:40;49.30;;;39.30;;
57846;SDS011;43675;50.030;21.952;2024-01-11T10:47:16;49.80;;;40.30;;
57846;SDS011;43675;50.030;21.952;2024-01-11T10:55:37;48.00;;;39.10;;
57846;SDS011;43675;50.030;21.952;2024-01-11T10:58:17;49.10;;;40.30;;
57846;SDS011;43675;50.030;21.952;2024-01-11T11:03:53;50.90;;;39.60;;
57846;SDS011;43675;50.030;21.952;2024-01-11T11:06:26;48.80;;;38.60;;
57846;SDS011;43675;50.030;21.952;2024-01-11T11:09:09;49.60;;;39.90;;
57846;SDS011;43675;50.030;21.952;2024-01-11T11:12:06;51.80;;;40.30;;
57846;SDS011;43675;50.030;21.952;2024-01-11T11:14:39;50.60;;;40.40;;
57846;SDS011;43675;50.030;21.952;2024-01-11T11:17:36;50.80;;;40.60;;
57846;SDS011;43675;50.030;21.952;2024-01-11T11:20:27;51.10;;;41.20;;
57846;SDS011;43675;50.030;21.952;2024-01-11T11:26:05;51.30;;;41.60;;
57846;SDS011;43675;50.030;21.952;2024-01-11T11:28:49;52.30;;;41.80;;
57846;SDS011;43675;50.030;21.952;2024-01-11T11:34:21;54.60;;;41.70;;
57846;SDS011;43675;50.030;21.952;2024-01-11T11:37:38;53.50;;;42.80;;
57846;SDS011;43675;50.030;21.952;2024-01-11T11:40:59;57.30;;;43.90;;
57846;SDS011;43675;50.030;21.952;2024-01-11T11:43:38;54.70;;;42.80;;
57846;SDS011;43675;50.030;21.952;2024-01-11T11:46:49;57.00;;;43.20;;
57846;SDS011;43675;50.030;21.952;2024-01-11T11:52:45;56.90;;;44.30;;
57846;SDS011;43675;50.030;21.952;2024-01-11T11:55:37;57.20;;;43.60;;
57846;SDS011;43675;50.030;21.952;2024-01-11T11:58:13;55.10;;;41.90;;
57846;SDS011;43675;50.030;21.952;2024-01-11T12:03:45;60.90;;;47.10;;
57846;SDS011;43675;50.030;21.952;2024-01-11T12:24:15;63.60;;;49.70;;
57846;SDS011;43675;50.030;21.952;2024-01-11T12:26:43;61.10;;;48.40;;
57846;SDS011;43675;50.030;21.952;2024-01-11T12:29:27;60.10;;;49.30;;
57846;SDS011;43675;50.030;21.952;2024-01-11T12:35:07;59.50;;;48.40;;
57846;SDS011;43675;50.030;21.952;2024-01-11T12:37:58;57.40;;;48.40;;
57846;SDS011;43675;50.030;21.952;2024-01-11T12:40:35;56.80;;;47.00;;
57846;SDS011;43675;50.030;21.952;2024-01-11T12:43:03;57.20;;;48.30;;
57846;SDS011;43675;50.030;21.952;2024-01-11T12:45:38;57.40;;;47.40;;
57846;SDS011;43675;50.030;21.952;2024-01-11T12:48:11;58.40;;;49.00;;
57846;SDS011;43675;50.030;21.952;2024-01-11T12:53:24;60.00;;;47.40;;
57846;SDS011;43675;50.030;21.952;2024-01-11T12:56:12;58.30;;;46.80;;
57846;SDS011;43675;50.030;21.952;2024-01-11T12:58:42;58.00;;;47.70;;
57846;SDS011;43675;50.030;21.952;2024-01-11T13:01:22;57.30;;;45.20;;
57846;SDS011;43675;50.030;21.952;2024-01-11T13:03:48;59.70;;;49.10;;
57846;SDS011;43675;50.030;21.952;2024-01-11T13:06:29;56.30;;;45.50;;
57846;SDS011;43675;50.030;21.952;2024-01-11T13:09:05;55.60;;;45.80;;
57846;SDS011;43675;50.030;21.952;2024-01-11T13:11:41;59.70;;;48.50;;
57846;SDS011;43675;50.030;21.952;2024-01-11T13:19:36;63.20;;;51.80;;
57846;SDS011;43675;50.030;21.952;2024-01-11T13:22:10;64.50;;;50.80;;
57846;SDS011;43675;50.030;21.952;2024-01-11T13:24:37;65.20;;;52.80;;
57846;SDS011;43675;50.030;21.952;2024-01-11T13:27:09;66.10;;;51.30;;
57846;SDS011;43675;50.030;21.952;2024-01-11T13:29:45;63.50;;;50.20;;
57846;SDS011;43675;50.030;21.952;2024-01-11T13:32:23;65.50;;;51.10;;
57846;SDS011;43675;50.030;21.952;2024-01-11T13:34:50;64.40;;;50.60;;
57846;SDS011;43675;50.030;21.952;2024-01-11T13:37:20;63.10;;;50.70;;
57846;SDS011;43675;50.030;21.952;2024-01-11T13:39:57;63.30;;;50.60;;
57846;SDS011;43675;50.030;21.952;2024-01-11T13:42:30;67.30;;;51.80;;
57846;SDS011;43675;50.030;21.952;2024-01-11T13:45:06;65.90;;;53.50;;
57846;SDS011;43675;50.030;21.952;2024-01-11T13:47:38;72.00;;;55.20;;
57846;SDS011;43675;50.030;21.952;2024-01-11T13:50:20;73.00;;;58.40;;
57846;SDS011;43675;50.030;21.952;2024-01-11T13:53:03;76.30;;;58.40;;
57846;SDS011;43675;50.030;21.952;2024-01-11T13:55:32;72.80;;;60.20;;
57846;SDS011;43675;50.030;21.952;2024-01-11T13:58:23;78.30;;;63.00;;
57846;SDS011;43675;50.030;21.952;2024-01-11T14:01:03;76.50;;;61.60;;
57846;SDS011;43675;50.030;21.952;2024-01-11T14:03:51;78.30;;;58.70;;
57846;SDS011;43675;50.030;21.952;2024-01-11T14:06:28;83.40;;;60.60;;
57846;SDS011;43675;50.030;21.952;2024-01-11T14:09:05;80.00;;;61.10;;
57846;SDS011;43675;50.030;21.952;2024-01-11T14:11:46;81.40;;;61.90;;
57846;SDS011;43675;50.030;21.952;2024-01-11T14:14:13;82.70;;;62.80;;
57846;SDS011;43675;50.030;21.952;2024-01-11T14:16:55;85.90;;;62.80;;
57846;SDS011;43675;50.030;21.952;2024-01-11T14:22:03;85.70;;;66.10;;
57846;SDS011;43675;50.030;21.952;2024-01-11T14:27:12;91.40;;;65.80;;
57846;SDS011;43675;50.030;21.952;2024-01-11T14:32:59;94.70;;;70.90;;
57846;SDS011;43675;50.030;21.952;2024-01-11T14:35:26;97.00;;;71.80;;
57846;SDS011;43675;50.030;21.952;2024-01-11T14:38:03;98.80;;;74.10;;
57846;SDS011;43675;50.030;21.952;2024-01-11T14:40:33;98.20;;;73.80;;
57846;SDS011;43675;50.030;21.952;2024-01-11T14:43:03;107.00;;;79.20;;
57846;SDS011;43675;50.030;21.952;2024-01-11T14:45:40;104.30;;;77.60;;
57846;SDS011;43675;50.030;21.952;2024-01-11T14:48:09;106.90;;;81.40;;
57846;SDS011;43675;50.030;21.952;2024-01-11T14:50:36;109.10;;;82.40;;
57846;SDS011;43675;50.030;21.952;2024-01-11T14:53:05;108.20;;;82.20;;
57846;SDS011;43675;50.030;21.952;2024-01-11T14:55:32;110.30;;;81.80;;
57846;SDS011;43675;50.030;21.952;2024-01-11T14:58:04;109.20;;;82.30;;
57846;SDS011;43675;50.030;21.952;2024-01-11T15:00:31;109.00;;;82.00;;
57846;SDS011;43675;50.030;21.952;2024-01-11T15:03:18;107.50;;;82.90;;
57846;SDS011;43675;50.030;21.952;2024-01-11T15:06:17;106.70;;;80.70;;
57846;SDS011;43675;50.030;21.952;2024-01-11T15:08:53;109.90;;;81.70;;
57846;SDS011;43675;50.030;21.952;2024-01-11T15:11:22;111.10;;;84.10;;
57846;SDS011;43675;50.030;21.952;2024-01-11T15:13:49;112.10;;;85.50;;
57846;SDS011;43675;50.030;21.952;2024-01-11T15:16:18;115.60;;;87.80;;
57846;SDS011;43675;50.030;21.952;2024-01-11T15:18:48;118.60;;;88.00;;
57846;SDS011;43675;50.030;21.952;2024-01-11T15:21:15;121.50;;;91.10;;
57846;SDS011;43675;50.030;21.952;2024-01-11T15:23:44;120.30;;;88.60;;
57846;SDS011;43675;50.030;21.952;2024-01-11T15:26:11;119.90;;;91.00;;
57846;SDS011;43675;50.030;21.952;2024-01-11T15:28:49;124.10;;;91.00;;
57846;SDS011;43675;50.030;21.952;2024-01-11T15:31:16;113.60;;;87.40;;
57846;SDS011;43675;50.030;21.952;2024-01-11T15:33:43;117.80;;;88.10;;
57846;SDS011;43675;50.030;21.952;2024-01-11T15:36:13;119.30;;;89.40;;
57846;SDS011;43675;50.030;21.952;2024-01-11T15:41:20;114.70;;;88.80;;
57846;SDS011;43675;50.030;21.952;2024-01-11T15:43:47;112.90;;;86.30;;
57846;SDS011;43675;50.030;21.952;2024-01-11T15:46:14;117.30;;;88.60;;
57846;SDS011;43675;50.030;21.952;2024-01-11T15:48:41;121.50;;;91.60;;
57846;SDS011;43675;50.030;21.952;2024-01-11T15:51:19;119.40;;;88.50;;
57846;SDS011;43675;50.030;21.952;2024-01-11T15:53:46;117.90;;;88.90;;
57846;SDS011;43675;50.030;21.952;2024-01-11T15:56:33;120.10;;;91.50;;
57846;SDS011;43675;50.030;21.952;2024-01-11T15:59:00;119.40;;;87.90;;
57846;SDS011;43675;50.030;21.952;2024-01-11T16:01:34;123.60;;;91.20;;
57846;SDS011;43675;50.030;21.952;2024-01-11T16:04:01;123.30;;;92.10;;
57846;SDS011;43675;50.030;21.952;2024-01-11T16:06:28;124.80;;;92.80;;
57846;SDS011;43675;50.030;21.952;2024-01-11T16:08:55;128.20;;;92.70;;
57846;SDS011;43675;50.030;21.952;2024-01-11T16:11:22;121.90;;;90.10;;
57846;SDS011;43675;50.030;21.952;2024-01-11T16:16:26;116.70;;;89.50;;
57846;SDS011;43675;50.030;21.952;2024-01-11T16:19:02;124.10;;;92.50;;
57846;SDS011;43675;50.030;21.952;2024-01-11T16:21:49;117.60;;;86.50;;
57846;SDS011;43675;50.030;21.952;2024-01-11T16:24:16;110.50;;;84.90;;
57846;SDS011;43675;50.030;21.952;2024-01-11T16:26:43;114.90;;;86.60;;
57846;SDS011;43675;50.030;21.952;2024-01-11T16:31:50;114.30;;;85.30;;
57846;SDS011;43675;50.030;21.952;2024-01-11T16:34:20;114.30;;;87.10;;
57846;SDS011;43675;50.030;21.952;2024-01-11T16:36:46;121.10;;;88.10;;
57846;SDS011;43675;50.030;21.952;2024-01-11T16:39:13;118.30;;;90.10;;
57846;SDS011;43675;50.030;21.952;2024-01-11T16:41:40;122.10;;;91.80;;
57846;SDS011;43675;50.030;21.952;2024-01-11T16:44:09;117.50;;;91.50;;
57846;SDS011;43675;50.030;21.952;2024-01-11T16:46:39;122.50;;;92.50;;
57846;SDS011;43675;50.030;21.952;2024-01-11T16:49:22;121.80;;;93.70;;
57846;SDS011;43675;50.030;21.952;2024-01-11T16:51:49;120.50;;;93.00;;
57846;SDS011;43675;50.030;21.952;2024-01-11T16:54:17;121.10;;;89.70;;
57846;SDS011;43675;50.030;21.952;2024-01-11T16:56:44;125.00;;;92.90;;
57846;SDS011;43675;50.030;21.952;2024-01-11T16:59:16;123.50;;;91.50;;
57846;SDS011;43675;50.030;21.952;2024-01-11T17:01:42;119.10;;;89.10;;
57846;SDS011;43675;50.030;21.952;2024-01-11T17:04:14;121.70;;;92.10;;
57846;SDS011;43675;50.030;21.952;2024-01-11T17:09:16;126.30;;;93.30;;
57846;SDS011;43675;50.030;21.952;2024-01-11T17:11:43;130.60;;;96.20;;
57846;SDS011;43675;50.030;21.952;2024-01-11T17:14:12;130.20;;;98.30;;
57846;SDS011;43675;50.030;21.952;2024-01-11T17:16:39;130.30;;;95.80;;
57846;SDS011;43675;50.030;21.952;2024-01-11T17:19:13;123.70;;;95.40;;
57846;SDS011;43675;50.030;21.952;2024-01-11T17:21:40;134.00;;;96.90;;
57846;SDS011;43675;50.030;21.952;2024-01-11T17:24:07;132.80;;;96.50;;
57846;SDS011;43675;50.030;21.952;2024-01-11T17:26:34;132.20;;;97.30;;
57846;SDS011;43675;50.030;21.952;2024-01-11T17:29:09;141.20;;;105.20;;
57846;SDS011;43675;50.030;21.952;2024-01-11T17:31:36;143.40;;;103.80;;
57846;SDS011;43675;50.030;21.952;2024-01-11T17:34:05;136.60;;;101.60;;
57846;SDS011;43675;50.030;21.952;2024-01-11T17:36:31;142.50;;;104.90;;
57846;SDS011;43675;50.030;21.952;2024-01-11T17:39:01;152.70;;;103.80;;
57846;SDS011;43675;50.030;21.952;2024-01-11T17:41:28;141.40;;;103.70;;
57846;SDS011;43675;50.030;21.952;2024-01-11T17:43:55;141.80;;;103.30;;
57846;SDS011;43675;50.030;21.952;2024-01-11T17:46:29;138.60;;;104.20;;
57846;SDS011;43675;50.030;21.952;2024-01-11T17:51:38;136.80;;;100.90;;
57846;SDS011;43675;50.030;21.952;2024-01-11T17:54:17;135.10;;;101.30;;
57846;SDS011;43675;50.030;21.952;2024-01-11T17:56:44;133.90;;;97.20;;
57846;SDS011;43675;50.030;21.952;2024-01-11T17:59:11;140.90;;;101.90;;
57846;SDS011;43675;50.030;21.952;2024-01-11T18:01:38;134.20;;;99.60;;
57846;SDS011;43675;50.030;21.952;2024-01-11T18:04:06;138.00;;;97.20;;
57846;SDS011;43675;50.030;21.952;2024-01-11T18:06:33;136.00;;;100.50;;
57846;SDS011;43675;50.030;21.952;2024-01-11T18:09:23;133.60;;;99.80;;
57846;SDS011;43675;50.030;21.952;2024-01-11T18:11:50;131.90;;;97.40;;
57846;SDS011;43675;50.030;21.952;2024-01-11T18:14:22;136.20;;;101.10;;
57846;SDS011;43675;50.030;21.952;2024-01-11T18:16:49;137.10;;;98.00;;
57846;SDS011;43675;50.030;21.952;2024-01-11T18:19:32;131.40;;;95.90;;
57846;SDS011;43675;50.030;21.952;2024-01-11T18:24:42;134.40;;;99.10;;
57846;SDS011;43675;50.030;21.952;2024-01-11T18:27:29;128.00;;;95.70;;
57846;SDS011;43675;50.030;21.952;2024-01-11T18:30:02;130.40;;;96.10;;
57846;SDS011;43675;50.030;21.952;2024-01-11T18:32:30;133.40;;;99.50;;
57846;SDS011;43675;50.030;21.952;2024-01-11T18:34:57;124.00;;;93.80;;
57846;SDS011;43675;50.030;21.952;2024-01-11T18:37:24;129.10;;;96.50;;
57846;SDS011;43675;50.030;21.952;2024-01-11T18:39:52;132.90;;;99.10;;
57846;SDS011;43675;50.030;21.952;2024-01-11T18:42:47;129.40;;;96.70;;
57846;SDS011;43675;50.030;21.952;2024-01-11T18:45:17;130.30;;;96.10;;
57846;SDS011;43675;50.030;21.952;2024-01-11T18:48:12;131.20;;;99.20;;
57846;SDS011;43675;50.030;21.952;2024-01-11T18:50:41;134.70;;;101.40;;
57846;SDS011;43675;50.030;21.952;2024-01-11T18:53:16;127.90;;;96.90;;
57846;SDS011;43675;50.030;21.952;2024-01-11T18:55:43;132.90;;;98.50;;
57846;SDS011;43675;50.030;21.952;2024-01-11T19:01:55;128.80;;;95.30;;
57846;SDS011;43675;50.030;21.952;2024-01-11T19:04:34;121.20;;;93.70;;
57846;SDS011;43675;50.030;21.952;2024-01-11T19:07:24;128.90;;;97.50;;
57846;SDS011;43675;50.030;21.952;2024-01-11T19:09:54;134.70;;;105.20;;
57846;SDS011;43675;50.030;21.952;2024-01-11T19:12:43;129.20;;;94.30;;
57846;SDS011;43675;50.030;21.952;2024-01-11T19:15:50;125.80;;;96.50;;
57846;SDS011;43675;50.030;21.952;2024-01-11T19:18:36;129.30;;;96.60;;
57846;SDS011;43675;50.030;21.952;2024-01-11T19:21:09;129.50;;;96.10;;
57846;SDS011;43675;50.030;21.952;2024-01-11T19:32:39;119.30;;;90.40;;
57846;SDS011;43675;50.030;21.952;2024-01-11T19:38:15;107.00;;;80.70;;
57846;SDS011;43675;50.030;21.952;2024-01-11T19:49:27;107.90;;;84.70;;
57846;SDS011;43675;50.030;21.952;2024-01-11T19:52:14;109.40;;;85.00;;
57846;SDS011;43675;50.030;21.952;2024-01-11T19:54:41;110.40;;;85.70;;
57846;SDS011;43675;50.030;21.952;2024-01-11T19:57:15;108.30;;;84.50;;
57846;SDS011;43675;50.030;21.952;2024-01-11T19:59:44;108.30;;;81.90;;
57846;SDS011;43675;50.030;21.952;2024-01-11T20:02:14;107.40;;;84.30;;
57846;SDS011;43675;50.030;21.952;2024-01-11T20:04:41;105.70;;;83.40;;
57846;SDS011;43675;50.030;21.952;2024-01-11T20:07:25;107.40;;;83.40;;
57846;SDS011;43675;50.030;21.952;2024-01-11T20:09:55;107.30;;;85.20;;
57846;SDS011;43675;50.030;21.952;2024-01-11T20:12:30;111.60;;;82.90;;
57846;SDS011;43675;50.030;21.952;2024-01-11T20:14:56;112.10;;;87.30;;
57846;SDS011;43675;50.030;21.952;2024-01-11T20:17:23;109.70;;;83.80;;
57846;SDS011;43675;50.030;21.952;2024-01-11T20:19:53;109.30;;;84.80;;
57846;SDS011;43675;50.030;21.952;2024-01-11T20:22:23;110.40;;;86.20;;
57846;SDS011;43675;50.030;21.952;2024-01-11T20:25:00;107.40;;;84.20;;
57846;SDS011;43675;50.030;21.952;2024-01-11T20:27:30;105.40;;;82.20;;
57846;SDS011;43675;50.030;21.952;2024-01-11T20:29:57;102.00;;;80.70;;
57846;SDS011;43675;50.030;21.952;2024-01-11T20:32:31;103.20;;;81.80;;
57846;SDS011;43675;50.030;21.952;2024-01-11T20:35:19;107.30;;;83.90;;
57846;SDS011;43675;50.030;21.952;2024-01-11T20:37:45;106.30;;;80.70;;
57846;SDS011;43675;50.030;21.952;2024-01-11T20:40:30;108.00;;;83.50;;
57846;SDS011;43675;50.030;21.952;2024-01-11T20:42:57;104.40;;;82.80;;
57846;SDS011;43675;50.030;21.952;2024-01-11T20:45:33;109.30;;;78.90;;
57846;SDS011;43675;50.030;21.952;2024-01-11T20:47:59;103.90;;;81.30;;
57846;SDS011;43675;50.030;21.952;2024-01-11T20:50:35;108.30;;;82.30;;
57846;SDS011;43675;50.030;21.952;2024-01-11T20:53:02;106.80;;;81.60;;
57846;SDS011;43675;50.030;21.952;2024-01-11T20:58:07;99.20;;;78.90;;
57846;SDS011;43675;50.030;21.952;2024-01-11T21:00:37;101.20;;;77.90;;
57846;SDS011;43675;50.030;21.952;2024-01-11T21:03:04;101.50;;;79.00;;
57846;SDS011;43675;50.030;21.952;2024-01-11T21:08:14;107.00;;;82.20;;
57846;SDS011;43675;50.030;21.952;2024-01-11T21:13:19;102.10;;;80.30;;
57846;SDS011;43675;50.030;21.952;2024-01-11T21:15:46;94.80;;;75.00;;
57846;SDS011;43675;50.030;21.952;2024-01-11T21:18:16;97.40;;;77.10;;
57846;SDS011;43675;50.030;21.952;2024-01-11T21:20:42;99.10;;;78.40;;
57846;SDS011;43675;50.030;21.952;2024-01-11T21:23:09;96.70;;;76.20;;
57846;SDS011;43675;50.030;21.952;2024-01-11T21:25:36;102.20;;;77.70;;
57846;SDS011;43675;50.030;21.952;2024-01-11T21:28:10;98.40;;;78.30;;
57846;SDS011;43675;50.030;21.952;2024-01-11T21:30:37;104.20;;;80.10;;
57846;SDS011;43675;50.030;21.952;2024-01-11T21:33:04;99.30;;;75.60;;
57846;SDS011;43675;50.030;21.952;2024-01-11T21:35:30;99.30;;;77.70;;
57846;SDS011;43675;50.030;21.952;2024-01-11T21:38:00;91.90;;;74.30;;
57846;SDS011;43675;50.030;21.952;2024-01-11T21:40:29;94.80;;;73.40;;
57846;SDS011;43675;50.030;21.952;2024-01-11T21:42:58;95.40;;;77.20;;
57846;SDS011;43675;50.030;21.952;2024-01-11T21:48:12;97.50;;;78.40;;
57846;SDS011;43675;50.030;21.952;2024-01-11T21:51:00;88.20;;;70.80;;
57846;SDS011;43675;50.030;21.952;2024-01-11T21:53:46;87.10;;;69.20;;
57846;SDS011;43675;50.030;21.952;2024-01-11T21:56:20;88.60;;;70.70;;
57846;SDS011;43675;50.030;21.952;2024-01-11T21:58:49;87.90;;;71.20;;
57846;SDS011;43675;50.030;21.952;2024-01-11T22:01:16;90.40;;;72.00;;
57846;SDS011;43675;50.030;21.952;2024-01-11T22:03:58;90.20;;;72.40;;
57846;SDS011;43675;50.030;21.952;2024-01-11T22:06:26;92.60;;;72.50;;
57846;SDS011;43675;50.030;21.952;2024-01-11T22:09:08;95.90;;;73.10;;
57846;SDS011;43675;50.030;21.952;2024-01-11T22:11:41;90.50;;;71.40;;
57846;SDS011;43675;50.030;21.952;2024-01-11T22:14:08;88.50;;;69.90;;
57846;SDS011;43675;50.030;21.952;2024-01-11T22:16:34;90.70;;;73.70;;
57846;SDS011;43675;50.030;21.952;2024-01-11T22:19:01;91.10;;;72.20;;
57846;SDS011;43675;50.030;21.952;2024-01-11T22:21:28;92.80;;;72.90;;
57846;SDS011;43675;50.030;21.952;2024-01-11T22:24:00;93.90;;;72.00;;
57846;SDS011;43675;50.030;21.952;2024-01-11T22:26:27;96.90;;;74.90;;
57846;SDS011;43675;50.030;21.952;2024-01-11T22:29:01;93.20;;;72.90;;
57846;SDS011;43675;50.030;21.952;2024-01-11T22:31:31;88.50;;;69.80;;
57846;SDS011;43675;50.030;21.952;2024-01-11T22:34:01;87.60;;;67.60;;
57846;SDS011;43675;50.030;21.952;2024-01-11T22:36:28;85.90;;;68.60;;
57846;SDS011;43675;50.030;21.952;2024-01-11T22:39:03;86.50;;;68.80;;
57846;SDS011;43675;50.030;21.952;2024-01-11T22:41:36;81.40;;;67.00;;
57846;SDS011;43675;50.030;21.952;2024-01-11T22:44:04;85.90;;;67.60;;
57846;SDS011;43675;50.030;21.952;2024-01-11T22:46:34;82.80;;;67.30;;
57846;SDS011;43675;50.030;21.952;2024-01-11T22:49:00;83.70;;;64.60;;
57846;SDS011;43675;50.030;21.952;2024-01-11T22:51:27;84.50;;;68.10;;
57846;SDS011;43675;50.030;21.952;2024-01-11T22:53:53;83.80;;;67.20;;
57846;SDS011;43675;50.030;21.952;2024-01-11T22:56:20;82.10;;;64.80;;
57846;SDS011;43675;50.030;21.952;2024-01-11T22:58:47;83.30;;;65.80;;
57846;SDS011;43675;50.030;21.952;2024-01-11T23:01:13;85.30;;;64.90;;
57846;SDS011;43675;50.030;21.952;2024-01-11T23:03:40;86.80;;;72.20;;
57846;SDS011;43675;50.030;21.952;2024-01-11T23:06:07;84.90;;;69.80;;
57846;SDS011;43675;50.030;21.952;2024-01-11T23:08:34;83.20;;;72.50;;
57846;SDS011;43675;50.030;21.952;2024-01-11T23:11:01;85.10;;;73.70;;
57846;SDS011;43675;50.030;21.952;2024-01-11T23:16:20;89.90;;;78.10;;
57846;SDS011;43675;50.030;21.952;2024-01-11T23:18:56;89.20;;;79.60;;
57846;SDS011;43675;50.030;21.952;2024-01-11T23:21:23;91.20;;;79.50;;
57846;SDS011;43675;50.030;21.952;2024-01-11T23:23:56;91.30;;;81.30;;
57846;SDS011;43675;50.030;21.952;2024-01-11T23:28:59;92.90;;;83.10;;
57846;SDS011;43675;50.030;21.952;2024-01-11T23:31:26;91.30;;;81.00;;
57846;SDS011;43675;50.030;21.952;2024-01-11T23:33:53;88.00;;;77.70;;
57846;SDS011;43675;50.030;21.952;2024-01-11T23:36:19;94.90;;;84.80;;
57846;SDS011;43675;50.030;21.952;2024-01-11T23:38:46;90.40;;;80.60;;
57846;SDS011;43675;50.030;21.952;2024-01-11T23:41:13;93.50;;;83.60;;
57846;SDS011;43675;50.030;21.952;2024-01-11T23:43:39;99.80;;;89.30;;
57846;SDS011;43675;50.030;21.952;2024-01-11T23:46:06;99.10;;;88.80;;